sensor_id;sensor_type;location;lat;lon;timestamp;pressure;altitude;pressure_sealevel;temperature;humidity
28448;BME280;15675;52.870;-1.416;2023-04-22T00:00:13;100302.06;;;11.07;100.00
28448;BME280;15675;52.870;-1.416;2023-04-22T00:02:39;100286.63;;;10.79;100.00
28448;BME280;15675;52.870;-1.416;2023-04-22T00:05:06;100287.50;;;10.77;100.00
28448;BME280;15675;52.870;-1.416;2023-04-22T00:07:32;100285.00;;;10.33;100.00
28448;BME280;15675;52.870;-1.416;2023-04-22T00:09:58;100278.91;;;10.51;100.00
28448;BME280;15675;52.870;-1.416;2023-04-22T00:12:24;100281.47;;;10.65;100.00
28448;BME280;15675;52.870;-1.416;2023-04-22T00:14:49;100276.38;;;10.22;100.00
28448;BME280;15675;52.870;-1.416;2023-04-22T00:17:15;100275.47;;;10.48;100.00
28448;BME280;15675;52.870;-1.416;2023-04-22T00:19:41;100271.06;;;10.68;100.00
28448;BME280;15675;52.870;-1.416;2023-04-22T00:22:07;100272.59;;;11.11;100.00
28448;BME280;15675;52.870;-1.416;2023-04-22T00:24:32;100264.56;;;11.51;100.00
28448;BME280;15675;52.870;-1.416;2023-04-22T00:26:58;100263.34;;;11.92;100.00
28448;BME280;15675;52.870;-1.416;2023-04-22T00:29:26;100264.09;;;12.07;99.33
28448;BME280;15675;52.870;-1.416;2023-04-22T00:31:52;100257.91;;;12.23;96.77
28448;BME280;15675;52.870;-1.416;2023-04-22T00:34:17;100260.63;;;12.09;93.01
28448;BME280;15675;52.870;-1.416;2023-04-22T00:36:44;100252.22;;;11.77;89.57
28448;BME280;15675;52.870;-1.416;2023-04-22T00:39:11;100240.16;;;11.69;88.46
28448;BME280;15675;52.870;-1.416;2023-04-22T00:41:38;100240.09;;;11.75;88.06
28448;BME280;15675;52.870;-1.416;2023-04-22T00:44:06;100234.97;;;11.69;87.99
28448;BME280;15675;52.870;-1.416;2023-04-22T00:46:33;100218.81;;;11.27;88.51
28448;BME280;15675;52.870;-1.416;2023-04-22T00:48:59;100214.47;;;11.32;89.85
28448;BME280;15675;52.870;-1.416;2023-04-22T00:51:25;100215.16;;;11.51;90.82
28448;BME280;15675;52.870;-1.416;2023-04-22T00:53:52;100216.69;;;11.77;89.92
28448;BME280;15675;52.870;-1.416;2023-04-22T00:56:18;100206.28;;;11.80;88.05
28448;BME280;15675;52.870;-1.416;2023-04-22T00:58:44;100202.78;;;11.81;86.99
28448;BME280;15675;52.870;-1.416;2023-04-22T01:01:10;100200.09;;;11.92;86.38
28448;BME280;15675;52.870;-1.416;2023-04-22T01:03:37;100200.09;;;11.92;85.37
28448;BME280;15675;52.870;-1.416;2023-04-22T01:06:04;100194.09;;;11.84;84.72
28448;BME280;15675;52.870;-1.416;2023-04-22T01:08:31;100190.59;;;11.86;84.41
28448;BME280;15675;52.870;-1.416;2023-04-22T01:10:56;100192.16;;;11.03;85.53
28448;BME280;15675;52.870;-1.416;2023-04-22T01:13:22;100187.31;;;10.28;91.53
28448;BME280;15675;52.870;-1.416;2023-04-22T01:15:49;100184.41;;;10.94;95.39
28448;BME280;15675;52.870;-1.416;2023-04-22T01:18:15;100184.19;;;11.28;93.95
28448;BME280;15675;52.870;-1.416;2023-04-22T01:20:41;100171.03;;;11.47;92.26
28448;BME280;15675;52.870;-1.416;2023-04-22T01:23:15;100164.81;;;11.65;90.51
28448;BME280;15675;52.870;-1.416;2023-04-22T01:25:42;100170.03;;;11.65;89.17
28448;BME280;15675;52.870;-1.416;2023-04-22T01:28:08;100163.09;;;11.64;87.91
28448;BME280;15675;52.870;-1.416;2023-04-22T01:30:34;100156.31;;;11.49;86.85
28448;BME280;15675;52.870;-1.416;2023-04-22T01:32:59;100153.94;;;11.18;86.49
28448;BME280;15675;52.870;-1.416;2023-04-22T01:35:25;100150.81;;;10.69;88.90
28448;BME280;15675;52.870;-1.416;2023-04-22T01:37:51;100149.16;;;10.53;92.19
28448;BME280;15675;52.870;-1.416;2023-04-22T01:40:18;100145.69;;;10.54;94.51
28448;BME280;15675;52.870;-1.416;2023-04-22T01:42:47;100141.63;;;9.88;98.01
28448;BME280;15675;52.870;-1.416;2023-04-22T01:45:13;100138.25;;;9.37;100.00
28448;BME280;15675;52.870;-1.416;2023-04-22T01:47:42;100142.53;;;9.53;100.00
28448;BME280;15675;52.870;-1.416;2023-04-22T01:50:08;100145.13;;;9.52;100.00
28448;BME280;15675;52.870;-1.416;2023-04-22T01:52:34;100139.97;;;9.24;100.00
28448;BME280;15675;52.870;-1.416;2023-04-22T01:55:01;100138.97;;;8.52;100.00
28448;BME280;15675;52.870;-1.416;2023-04-22T01:57:26;100144.94;;;8.40;100.00
28448;BME280;15675;52.870;-1.416;2023-04-22T01:59:52;100150.22;;;8.50;100.00
28448;BME280;15675;52.870;-1.416;2023-04-22T02:02:17;100136.50;;;8.95;100.00
28448;BME280;15675;52.870;-1.416;2023-04-22T02:04:43;100145.84;;;8.41;100.00
28448;BME280;15675;52.870;-1.416;2023-04-22T02:07:08;100138.75;;;8.00;100.00
28448;BME280;15675;52.870;-1.416;2023-04-22T02:09:34;100145.63;;;7.94;100.00
28448;BME280;15675;52.870;-1.416;2023-04-22T02:11:59;100146.53;;;8.01;100.00
28448;BME280;15675;52.870;-1.416;2023-04-22T02:14:25;100142.19;;;7.97;100.00
28448;BME280;15675;52.870;-1.416;2023-04-22T02:16:51;100135.38;;;8.10;100.00
28448;BME280;15675;52.870;-1.416;2023-04-22T02:19:17;100130.28;;;8.30;100.00
28448;BME280;15675;52.870;-1.416;2023-04-22T02:21:42;100134.63;;;8.43;100.00
28448;BME280;15675;52.870;-1.416;2023-04-22T02:24:08;100124.25;;;8.42;100.00
28448;BME280;15675;52.870;-1.416;2023-04-22T02:26:34;100125.22;;;8.70;100.00
28448;BME280;15675;52.870;-1.416;2023-04-22T02:28:59;100126.09;;;8.58;100.00
28448;BME280;15675;52.870;-1.416;2023-04-22T02:31:25;100121.66;;;8.36;100.00
28448;BME280;15675;52.870;-1.416;2023-04-22T02:33:50;100116.50;;;8.36;100.00
28448;BME280;15675;52.870;-1.416;2023-04-22T02:36:16;100122.66;;;8.70;100.00
28448;BME280;15675;52.870;-1.416;2023-04-22T02:38:41;100126.06;;;8.55;100.00
28448;BME280;15675;52.870;-1.416;2023-04-22T02:41:07;100120.03;;;8.58;100.00
28448;BME280;15675;52.870;-1.416;2023-04-22T02:43:32;100121.66;;;8.36;100.00
28448;BME280;15675;52.870;-1.416;2023-04-22T02:45:58;100121.59;;;8.12;100.00
28448;BME280;15675;52.870;-1.416;2023-04-22T02:48:23;100115.59;;;8.32;100.00
28448;BME280;15675;52.870;-1.416;2023-04-22T02:50:49;100115.59;;;8.23;100.00
28448;BME280;15675;52.870;-1.416;2023-04-22T02:53:14;100112.03;;;7.98;100.00
28448;BME280;15675;52.870;-1.416;2023-04-22T02:55:40;100109.53;;;8.19;100.00
28448;BME280;15675;52.870;-1.416;2023-04-22T02:58:06;100102.75;;;8.49;100.00
28448;BME280;15675;52.870;-1.416;2023-04-22T03:00:33;100091.53;;;8.42;100.00
28448;BME280;15675;52.870;-1.416;2023-04-22T03:02:59;100087.16;;;8.32;100.00
28448;BME280;15675;52.870;-1.416;2023-04-22T03:05:24;100086.22;;;8.04;100.00
28448;BME280;15675;52.870;-1.416;2023-04-22T03:07:50;100086.06;;;7.70;100.00
28448;BME280;15675;52.870;-1.416;2023-04-22T03:10:16;100087.84;;;7.86;100.00
28448;BME280;15675;52.870;-1.416;2023-04-22T03:12:41;100077.63;;;8.09;100.00
28448;BME280;15675;52.870;-1.416;2023-04-22T03:15:07;100073.09;;;7.60;100.00
28448;BME280;15675;52.870;-1.416;2023-04-22T03:17:33;100073.25;;;7.96;100.00
28448;BME280;15675;52.870;-1.416;2023-04-22T03:19:59;100074.91;;;7.80;100.00
28448;BME280;15675;52.870;-1.416;2023-04-22T03:22:24;100066.22;;;7.63;100.00
28448;BME280;15675;52.870;-1.416;2023-04-22T03:24:50;100057.56;;;7.54;100.00
28448;BME280;15675;52.870;-1.416;2023-04-22T03:27:15;100047.25;;;7.60;100.00
28448;BME280;15675;52.870;-1.416;2023-04-22T03:29:41;100058.47;;;7.63;100.00
28448;BME280;15675;52.870;-1.416;2023-04-22T03:32:06;100045.56;;;7.67;100.00
28448;BME280;15675;52.870;-1.416;2023-04-22T03:34:32;100052.50;;;7.81;100.00
28448;BME280;15675;52.870;-1.416;2023-04-22T03:36:57;100043.09;;;7.90;100.00
28448;BME280;15675;52.870;-1.416;2023-04-22T03:39:23;100050.00;;;7.99;100.00
28448;BME280;15675;52.870;-1.416;2023-04-22T03:41:48;100036.25;;;8.03;100.00
28448;BME280;15675;52.870;-1.416;2023-04-22T03:44:14;100046.56;;;7.91;100.00
28448;BME280;15675;52.870;-1.416;2023-04-22T03:46:40;100039.53;;;7.65;100.00
28448;BME280;15675;52.870;-1.416;2023-04-22T03:49:05;100036.06;;;7.55;100.00
28448;BME280;15675;52.870;-1.416;2023-04-22T03:51:31;100035.16;;;7.47;100.00
28448;BME280;15675;52.870;-1.416;2023-04-22T03:53:56;100033.41;;;7.45;100.00
28448;BME280;15675;52.870;-1.416;2023-04-22T03:56:22;100028.41;;;7.86;100.00
28448;BME280;15675;52.870;-1.416;2023-04-22T03:58:49;100035.25;;;7.72;100.00
28448;BME280;15675;52.870;-1.416;2023-04-22T04:01:15;100024.97;;;7.81;100.00
28448;BME280;15675;52.870;-1.416;2023-04-22T04:03:40;100019.88;;;8.12;100.00
28448;BME280;15675;52.870;-1.416;2023-04-22T04:06:06;100019.00;;;7.99;100.00
28448;BME280;15675;52.870;-1.416;2023-04-22T04:08:31;100015.44;;;7.68;100.00
28448;BME280;15675;52.870;-1.416;2023-04-22T04:10:57;100009.47;;;7.87;100.00
28448;BME280;15675;52.870;-1.416;2023-04-22T04:13:22;100008.66;;;7.98;100.00
28448;BME280;15675;52.870;-1.416;2023-04-22T04:15:48;100006.91;;;7.89;100.00
28448;BME280;15675;52.870;-1.416;2023-04-22T04:18:14;100003.53;;;8.16;100.00
28448;BME280;15675;52.870;-1.416;2023-04-22T04:20:39;99997.50;;;8.20;100.00
28448;BME280;15675;52.870;-1.416;2023-04-22T04:23:05;100012.13;;;8.01;100.00
28448;BME280;15675;52.870;-1.416;2023-04-22T04:25:30;99997.50;;;8.26;100.00
28448;BME280;15675;52.870;-1.416;2023-04-22T04:28:05;99994.91;;;8.09;100.00
28448;BME280;15675;52.870;-1.416;2023-04-22T04:30:34;99992.31;;;8.08;100.00
28448;BME280;15675;52.870;-1.416;2023-04-22T04:32:59;100001.75;;;7.97;100.00
28448;BME280;15675;52.870;-1.416;2023-04-22T04:35:32;99998.31;;;7.90;100.00
28448;BME280;15675;52.870;-1.416;2023-04-22T04:37:59;99995.78;;;8.10;100.00
28448;BME280;15675;52.870;-1.416;2023-04-22T04:40:25;99990.50;;;7.82;100.00
28448;BME280;15675;52.870;-1.416;2023-04-22T04:42:54;100002.63;;;7.97;100.00
28448;BME280;15675;52.870;-1.416;2023-04-22T04:45:20;99991.50;;;8.41;100.00
28448;BME280;15675;52.870;-1.416;2023-04-22T04:47:47;99988.88;;;8.03;100.00
28448;BME280;15675;52.870;-1.416;2023-04-22T04:50:15;99996.56;;;7.81;100.00
28448;BME280;15675;52.870;-1.416;2023-04-22T04:52:41;99998.25;;;7.73;100.00
28448;BME280;15675;52.870;-1.416;2023-04-22T04:55:07;99997.47;;;8.06;100.00
28448;BME280;15675;52.870;-1.416;2023-04-22T04:57:33;100000.91;;;7.98;100.00
28448;BME280;15675;52.870;-1.416;2023-04-22T04:59:58;99994.03;;;8.01;100.00
28448;BME280;15675;52.870;-1.416;2023-04-22T05:02:24;99994.88;;;8.00;100.00
28448;BME280;15675;52.870;-1.416;2023-04-22T05:04:49;99988.88;;;8.06;100.00
28448;BME280;15675;52.870;-1.416;2023-04-22T05:07:15;99993.13;;;7.87;100.00
28448;BME280;15675;52.870;-1.416;2023-04-22T05:09:40;99999.94;;;7.69;100.00
28448;BME280;15675;52.870;-1.416;2023-04-22T05:12:06;99999.94;;;7.66;100.00
28448;BME280;15675;52.870;-1.416;2023-04-22T05:14:31;99998.22;;;7.70;100.00
28448;BME280;15675;52.870;-1.416;2023-04-22T05:16:57;99999.03;;;7.56;100.00
28448;BME280;15675;52.870;-1.416;2023-04-22T05:19:22;99993.94;;;7.78;100.00
28448;BME280;15675;52.870;-1.416;2023-04-22T05:21:48;99981.81;;;7.55;100.00
28448;BME280;15675;52.870;-1.416;2023-04-22T05:24:13;99989.59;;;7.63;100.00
28448;BME280;15675;52.870;-1.416;2023-04-22T05:26:39;99990.41;;;7.53;100.00
28448;BME280;15675;52.870;-1.416;2023-04-22T05:29:05;99987.97;;;7.96;100.00
28448;BME280;15675;52.870;-1.416;2023-04-22T05:31:31;99998.31;;;7.98;100.00
28448;BME280;15675;52.870;-1.416;2023-04-22T05:33:58;99978.41;;;7.72;100.00
28448;BME280;15675;52.870;-1.416;2023-04-22T05:36:23;99977.44;;;7.43;100.00
28448;BME280;15675;52.870;-1.416;2023-04-22T05:38:49;99973.91;;;7.23;100.00
28448;BME280;15675;52.870;-1.416;2023-04-22T05:41:14;99976.72;;;7.74;100.00
28448;BME280;15675;52.870;-1.416;2023-04-22T05:43:40;99977.50;;;7.54;100.00
28448;BME280;15675;52.870;-1.416;2023-04-22T05:46:06;99976.72;;;7.80;100.00
28448;BME280;15675;52.870;-1.416;2023-04-22T05:48:31;99971.63;;;8.03;100.00
28448;BME280;15675;52.870;-1.416;2023-04-22T05:50:57;99976.81;;;8.25;100.00
28448;BME280;15675;52.870;-1.416;2023-04-22T05:53:22;99974.25;;;8.17;100.00
28448;BME280;15675;52.870;-1.416;2023-04-22T05:55:49;99969.06;;;8.23;100.00
28448;BME280;15675;52.870;-1.416;2023-04-22T05:58:14;99973.41;;;8.40;100.00
28448;BME280;15675;52.870;-1.416;2023-04-22T06:00:40;99975.16;;;8.81;100.00
28448;BME280;15675;52.870;-1.416;2023-04-22T06:03:05;99979.47;;;9.02;100.00
28448;BME280;15675;52.870;-1.416;2023-04-22T06:05:31;99978.63;;;8.92;100.00
28448;BME280;15675;52.870;-1.416;2023-04-22T06:07:57;99981.19;;;8.97;100.00
28448;BME280;15675;52.870;-1.416;2023-04-22T06:10:22;99969.09;;;8.96;100.00
28448;BME280;15675;52.870;-1.416;2023-04-22T06:12:48;99971.72;;;8.77;100.00
28448;BME280;15675;52.870;-1.416;2023-04-22T06:15:13;99978.59;;;8.83;100.00
28448;BME280;15675;52.870;-1.416;2023-04-22T06:17:39;99982.00;;;9.22;100.00
28448;BME280;15675;52.870;-1.416;2023-04-22T06:20:05;99976.88;;;8.94;100.00
28448;BME280;15675;52.870;-1.416;2023-04-22T06:22:31;99982.91;;;9.03;100.00
28448;BME280;15675;52.870;-1.416;2023-04-22T06:24:56;99982.88;;;9.18;100.00
28448;BME280;15675;52.870;-1.416;2023-04-22T06:27:22;99978.50;;;9.45;100.00
28448;BME280;15675;52.870;-1.416;2023-04-22T06:29:47;99973.34;;;9.29;100.00
28448;BME280;15675;52.870;-1.416;2023-04-22T06:32:13;99973.31;;;9.37;100.00
28448;BME280;15675;52.870;-1.416;2023-04-22T06:34:38;99969.84;;;9.50;100.00
28448;BME280;15675;52.870;-1.416;2023-04-22T06:37:04;99963.75;;;9.55;100.00
28448;BME280;15675;52.870;-1.416;2023-04-22T06:39:30;99958.59;;;9.50;100.00
28448;BME280;15675;52.870;-1.416;2023-04-22T06:41:55;99957.59;;;9.79;100.00
28448;BME280;15675;52.870;-1.416;2023-04-22T06:44:21;99948.31;;;9.28;100.00
28448;BME280;15675;52.870;-1.416;2023-04-22T06:46:46;99949.22;;;9.12;100.00
28448;BME280;15675;52.870;-1.416;2023-04-22T06:49:12;99952.69;;;9.00;100.00
28448;BME280;15675;52.870;-1.416;2023-04-22T06:51:37;99955.16;;;9.48;100.00
28448;BME280;15675;52.870;-1.416;2023-04-22T06:54:03;99950.06;;;9.22;100.00
28448;BME280;15675;52.870;-1.416;2023-04-22T06:56:28;99954.22;;;9.61;100.00
28448;BME280;15675;52.870;-1.416;2023-04-22T06:58:54;99954.34;;;9.29;100.00
28448;BME280;15675;52.870;-1.416;2023-04-22T07:01:20;99954.28;;;9.55;100.00
28448;BME280;15675;52.870;-1.416;2023-04-22T07:03:45;99955.88;;;9.75;100.00
28448;BME280;15675;52.870;-1.416;2023-04-22T07:06:11;99957.66;;;9.62;100.00
28448;BME280;15675;52.870;-1.416;2023-04-22T07:08:37;99956.72;;;9.81;100.00
28448;BME280;15675;52.870;-1.416;2023-04-22T07:11:02;99962.84;;;9.70;100.00
28448;BME280;15675;52.870;-1.416;2023-04-22T07:13:28;99953.22;;;9.92;100.00
28448;BME280;15675;52.870;-1.416;2023-04-22T07:15:59;99959.16;;;10.11;100.00
28448;BME280;15675;52.870;-1.416;2023-04-22T07:18:25;99956.66;;;9.94;100.00
28448;BME280;15675;52.870;-1.416;2023-04-22T07:20:50;99954.03;;;10.00;100.00
28448;BME280;15675;52.870;-1.416;2023-04-22T07:23:16;99951.31;;;10.17;100.00
28448;BME280;15675;52.870;-1.416;2023-04-22T07:25:41;99959.13;;;10.14;100.00
28448;BME280;15675;52.870;-1.416;2023-04-22T07:28:07;99957.56;;;9.88;100.00
28448;BME280;15675;52.870;-1.416;2023-04-22T07:30:32;99958.16;;;10.27;100.00
28448;BME280;15675;52.870;-1.416;2023-04-22T07:32:58;99952.97;;;10.36;100.00
28448;BME280;15675;52.870;-1.416;2023-04-22T07:35:23;99952.31;;;10.02;100.00
28448;BME280;15675;52.870;-1.416;2023-04-22T07:37:49;99957.06;;;10.62;100.00
28448;BME280;15675;52.870;-1.416;2023-04-22T07:40:15;99946.59;;;10.75;100.00
28448;BME280;15675;52.870;-1.416;2023-04-22T07:42:40;99937.50;;;11.17;100.00
28448;BME280;15675;52.870;-1.416;2023-04-22T07:45:06;99936.31;;;10.62;100.00
28448;BME280;15675;52.870;-1.416;2023-04-22T07:47:32;99922.59;;;10.49;100.00
28448;BME280;15675;52.870;-1.416;2023-04-22T07:49:57;99924.19;;;10.63;100.00
28448;BME280;15675;52.870;-1.416;2023-04-22T07:52:23;99928.25;;;10.93;100.00
28448;BME280;15675;52.870;-1.416;2023-04-22T07:54:49;99928.66;;;11.32;100.00
28448;BME280;15675;52.870;-1.416;2023-04-22T07:57:15;99925.44;;;11.13;100.00
28448;BME280;15675;52.870;-1.416;2023-04-22T07:59:40;99923.59;;;11.20;100.00
28448;BME280;15675;52.870;-1.416;2023-04-22T08:02:06;99920.31;;;11.05;100.00
28448;BME280;15675;52.870;-1.416;2023-04-22T08:04:31;99920.47;;;10.90;100.00
28448;BME280;15675;52.870;-1.416;2023-04-22T08:06:57;99930.81;;;10.96;100.00
28448;BME280;15675;52.870;-1.416;2023-04-22T08:09:22;99932.69;;;10.77;100.00
28448;BME280;15675;52.870;-1.416;2023-04-22T08:11:48;99928.84;;;11.15;100.00
28448;BME280;15675;52.870;-1.416;2023-04-22T08:14:13;99928.47;;;10.67;100.00
28448;BME280;15675;52.870;-1.416;2023-04-22T08:16:41;99934.41;;;10.80;100.00
28448;BME280;15675;52.870;-1.416;2023-04-22T08:19:06;99935.31;;;10.76;100.00
28448;BME280;15675;52.870;-1.416;2023-04-22T08:21:32;99936.50;;;10.42;100.00
28448;BME280;15675;52.870;-1.416;2023-04-22T08:23:57;99930.06;;;10.83;100.00
28448;BME280;15675;52.870;-1.416;2023-04-22T08:26:23;99943.91;;;10.82;100.00
28448;BME280;15675;52.870;-1.416;2023-04-22T08:28:48;99935.28;;;10.79;100.00
28448;BME280;15675;52.870;-1.416;2023-04-22T08:31:14;99931.84;;;10.77;100.00
28448;BME280;15675;52.870;-1.416;2023-04-22T08:33:40;99934.91;;;11.19;100.00
28448;BME280;15675;52.870;-1.416;2023-04-22T08:36:07;99915.34;;;11.57;100.00
28448;BME280;15675;52.870;-1.416;2023-04-22T08:38:33;99915.53;;;11.45;100.00
28448;BME280;15675;52.870;-1.416;2023-04-22T08:40:59;99907.00;;;11.35;100.00
28448;BME280;15675;52.870;-1.416;2023-04-22T08:43:25;99911.75;;;10.94;100.00
28448;BME280;15675;52.870;-1.416;2023-04-22T08:45:51;99900.91;;;11.37;100.00
28448;BME280;15675;52.870;-1.416;2023-04-22T08:48:18;99894.41;;;10.99;100.00
28448;BME280;15675;52.870;-1.416;2023-04-22T08:50:45;99878.41;;;10.56;100.00
28448;BME280;15675;52.870;-1.416;2023-04-22T08:53:12;99872.06;;;10.84;100.00
28448;BME280;15675;52.870;-1.416;2023-04-22T08:55:39;99878.09;;;10.88;100.00
28448;BME280;15675;52.870;-1.416;2023-04-22T08:58:09;99885.94;;;10.82;100.00
28448;BME280;15675;52.870;-1.416;2023-04-22T09:00:35;99890.75;;;11.14;100.00
28448;BME280;15675;52.870;-1.416;2023-04-22T09:03:01;99898.25;;;11.42;100.00
28448;BME280;15675;52.870;-1.416;2023-04-22T09:05:32;99891.22;;;11.49;100.00
28448;BME280;15675;52.870;-1.416;2023-04-22T09:07:58;99889.09;;;11.77;100.00
28448;BME280;15675;52.870;-1.416;2023-04-22T09:10:24;99888.66;;;12.09;100.00
28448;BME280;15675;52.870;-1.416;2023-04-22T09:12:50;99881.13;;;11.88;96.80
28448;BME280;15675;52.870;-1.416;2023-04-22T09:15:16;99884.38;;;12.05;97.14
28448;BME280;15675;52.870;-1.416;2023-04-22T09:17:42;99882.75;;;11.98;94.87
28448;BME280;15675;52.870;-1.416;2023-04-22T09:20:08;99880.22;;;11.94;92.45
28448;BME280;15675;52.870;-1.416;2023-04-22T09:22:46;99881.59;;;12.18;92.34
28448;BME280;15675;52.870;-1.416;2023-04-22T09:25:19;99878.31;;;12.05;92.56
28448;BME280;15675;52.870;-1.416;2023-04-22T09:27:53;99880.44;;;11.77;91.60
28448;BME280;15675;52.870;-1.416;2023-04-22T09:30:24;99883.72;;;11.89;90.46
28448;BME280;15675;52.870;-1.416;2023-04-22T09:32:54;99885.13;;;12.12;92.23
28448;BME280;15675;52.870;-1.416;2023-04-22T09:37:57;99884.84;;;12.31;88.64
28448;BME280;15675;52.870;-1.416;2023-04-22T09:40:23;99882.66;;;12.04;89.52
28448;BME280;15675;52.870;-1.416;2023-04-22T09:42:51;99874.66;;;12.17;87.81
28448;BME280;15675;52.870;-1.416;2023-04-22T09:45:33;99886.19;;;12.02;86.21
28448;BME280;15675;52.870;-1.416;2023-04-22T09:48:21;99886.69;;;11.63;84.14
28448;BME280;15675;52.870;-1.416;2023-04-22T09:50:50;99877.84;;;12.34;83.94
28448;BME280;15675;52.870;-1.416;2023-04-22T09:53:17;99870.38;;;12.13;80.84
28448;BME280;15675;52.870;-1.416;2023-04-22T09:55:46;99874.84;;;12.06;81.52
28448;BME280;15675;52.870;-1.416;2023-04-22T09:58:14;99878.53;;;12.46;82.32
28448;BME280;15675;52.870;-1.416;2023-04-22T10:00:45;99871.41;;;12.57;80.51
28448;BME280;15675;52.870;-1.416;2023-04-22T10:03:14;99867.41;;;12.36;79.13
28448;BME280;15675;52.870;-1.416;2023-04-22T10:05:40;99870.25;;;12.22;80.13
28448;BME280;15675;52.870;-1.416;2023-04-22T10:08:07;99866.56;;;12.82;82.33
28448;BME280;15675;52.870;-1.416;2023-04-22T10:10:36;99866.47;;;12.41;77.51
28448;BME280;15675;52.870;-1.416;2023-04-22T10:13:03;99863.28;;;12.72;74.83
28448;BME280;15675;52.870;-1.416;2023-04-22T10:18:02;99859.19;;;12.59;71.22
28448;BME280;15675;52.870;-1.416;2023-04-22T10:20:30;99861.97;;;12.48;69.49
28448;BME280;15675;52.870;-1.416;2023-04-22T10:22:57;99866.63;;;12.79;71.48
28448;BME280;15675;52.870;-1.416;2023-04-22T10:25:24;99858.00;;;12.77;68.63
28448;BME280;15675;52.870;-1.416;2023-04-22T10:28:09;99857.16;;;12.75;68.43
28448;BME280;15675;52.870;-1.416;2023-04-22T10:30:37;99850.25;;;13.18;66.86
28448;BME280;15675;52.870;-1.416;2023-04-22T10:38:41;99851.44;;;13.03;65.07
28448;BME280;15675;52.870;-1.416;2023-04-22T10:41:13;99855.19;;;12.88;65.15
28448;BME280;15675;52.870;-1.416;2023-04-22T10:43:47;99853.47;;;12.88;63.87
28448;BME280;15675;52.870;-1.416;2023-04-22T10:49:05;99848.34;;;13.26;62.52
28448;BME280;15675;52.870;-1.416;2023-04-22T10:54:06;99857.69;;;12.92;63.72
28448;BME280;15675;52.870;-1.416;2023-04-22T10:56:32;99855.31;;;12.82;63.35
28448;BME280;15675;52.870;-1.416;2023-04-22T10:58:58;99854.47;;;12.80;63.07
28448;BME280;15675;52.870;-1.416;2023-04-22T11:01:26;99858.66;;;12.87;64.31
28448;BME280;15675;52.870;-1.416;2023-04-22T11:03:52;99865.09;;;13.14;63.55
28448;BME280;15675;52.870;-1.416;2023-04-22T11:06:19;99852.47;;;13.77;62.87
28448;BME280;15675;52.870;-1.416;2023-04-22T11:08:48;99859.16;;;13.51;63.31
28448;BME280;15675;52.870;-1.416;2023-04-22T11:11:16;99861.09;;;13.41;63.54
28448;BME280;15675;52.870;-1.416;2023-04-22T11:13:42;99863.03;;;13.71;65.31
28448;BME280;15675;52.870;-1.416;2023-04-22T11:16:08;99857.78;;;13.32;63.10
28448;BME280;15675;52.870;-1.416;2023-04-22T11:18:34;99860.03;;;13.06;62.56
28448;BME280;15675;52.870;-1.416;2023-04-22T11:21:06;99860.00;;;12.64;61.78
28448;BME280;15675;52.870;-1.416;2023-04-22T11:23:33;99857.72;;;13.36;61.49
28448;BME280;15675;52.870;-1.416;2023-04-22T11:26:03;99857.59;;;12.99;59.63
28448;BME280;15675;52.870;-1.416;2023-04-22T11:28:29;99849.53;;;13.09;60.77
28448;BME280;15675;52.870;-1.416;2023-04-22T11:31:06;99850.38;;;13.11;58.40
28448;BME280;15675;52.870;-1.416;2023-04-22T11:33:33;99846.06;;;13.10;56.09
28448;BME280;15675;52.870;-1.416;2023-04-22T11:35:59;99860.47;;;12.85;56.92
28448;BME280;15675;52.870;-1.416;2023-04-22T11:38:25;99853.38;;;12.91;56.46
28448;BME280;15675;52.870;-1.416;2023-04-22T11:40:53;99848.88;;;13.43;56.79
28448;BME280;15675;52.870;-1.416;2023-04-22T11:43:19;99860.06;;;14.22;57.98
28448;BME280;15675;52.870;-1.416;2023-04-22T11:45:45;99843.00;;;13.32;56.13
28448;BME280;15675;52.870;-1.416;2023-04-22T11:48:11;99840.78;;;13.56;55.60
28448;BME280;15675;52.870;-1.416;2023-04-22T11:50:39;99837.19;;;13.19;56.31
28448;BME280;15675;52.870;-1.416;2023-04-22T11:53:21;99854.06;;;13.00;56.76
28448;BME280;15675;52.870;-1.416;2023-04-22T11:55:50;99840.41;;;13.30;56.51
28448;BME280;15675;52.870;-1.416;2023-04-22T11:58:18;99843.09;;;13.70;54.89
28448;BME280;15675;52.870;-1.416;2023-04-22T12:00:46;99833.69;;;13.62;53.99
28448;BME280;15675;52.870;-1.416;2023-04-22T12:05:42;99840.06;;;14.23;54.60
28448;BME280;15675;52.870;-1.416;2023-04-22T12:08:16;99832.22;;;13.88;53.18
28448;BME280;15675;52.870;-1.416;2023-04-22T12:10:50;99826.88;;;13.93;53.24
28448;BME280;15675;52.870;-1.416;2023-04-22T12:13:21;99838.16;;;14.29;53.73
28448;BME280;15675;52.870;-1.416;2023-04-22T12:15:47;99841.03;;;13.43;54.39
28448;BME280;15675;52.870;-1.416;2023-04-22T12:18:13;99843.38;;;13.13;53.77
28448;BME280;15675;52.870;-1.416;2023-04-22T12:20:40;99834.72;;;13.54;53.02
28448;BME280;15675;52.870;-1.416;2023-04-22T12:23:15;99833.72;;;13.59;52.79
28448;BME280;15675;52.870;-1.416;2023-04-22T12:25:41;99843.19;;;13.63;53.13
28448;BME280;15675;52.870;-1.416;2023-04-22T12:28:07;99834.84;;;13.88;52.42
28448;BME280;15675;52.870;-1.416;2023-04-22T12:30:34;99836.63;;;13.85;52.87
28448;BME280;15675;52.870;-1.416;2023-04-22T12:32:59;99832.97;;;13.56;52.55
28448;BME280;15675;52.870;-1.416;2023-04-22T12:35:25;99836.25;;;13.64;52.98
28448;BME280;15675;52.870;-1.416;2023-04-22T12:37:51;99841.19;;;14.12;53.16
28448;BME280;15675;52.870;-1.416;2023-04-22T12:40:17;99843.31;;;14.67;52.10
28448;BME280;15675;52.870;-1.416;2023-04-22T12:42:42;99850.34;;;14.63;53.49
28448;BME280;15675;52.870;-1.416;2023-04-22T12:45:08;99853.25;;;14.18;52.35
28448;BME280;15675;52.870;-1.416;2023-04-22T12:47:34;99855.47;;;13.97;52.55
28448;BME280;15675;52.870;-1.416;2023-04-22T12:49:59;99849.59;;;14.25;53.36
28448;BME280;15675;52.870;-1.416;2023-04-22T12:52:25;99853.13;;;13.87;53.45
28448;BME280;15675;52.870;-1.416;2023-04-22T12:54:51;99852.97;;;13.93;54.47
28448;BME280;15675;52.870;-1.416;2023-04-22T12:57:17;99861.19;;;14.12;53.74
28448;BME280;15675;52.870;-1.416;2023-04-22T12:59:42;99850.41;;;13.91;54.30